Time;durP1;ratioP1;P1;durP2;ratioP2;P2;SDS_P1;SDS_P2;PMS_P1;PMS_P2;Temp;Humidity;BMP_temperature;BMP_pressure;BME280_temperature;BME280_humidity;BME280_pressure;Samples;Min_cycle;Max_cycle;Signal;HPM_P1;HPM_P2
2023/04/03 00:00:41;;;;;;;1.40;0.75;;;;;;;6.30;92.32;99627.19;6320838;28;20044;-74
2023/04/03 00:03:42;;;;;;;1.52;0.60;;;;;;;6.18;93.59;99631.22;6322119;28;20044;-75
2023/04/03 00:06:43;;;;;;;0.93;0.80;;;;;;;6.27;91.82;99632.50;6321907;28;20075;-75
2023/04/03 00:09:44;;;;;;;0.60;0.60;;;;;;;6.15;92.05;99623.59;6321844;28;20032;-75
2023/04/03 00:12:45;;;;;;;0.55;0.50;;;;;;;5.93;89.65;99615.16;6320636;28;20069;-75
2023/04/03 00:15:46;;;;;;;0.50;0.50;;;;;;;6.11;89.28;99637.59;6314923;28;20408;-74
2023/04/03 00:18:47;;;;;;;1.33;0.90;;;;;;;6.01;87.44;99638.97;6296604;28;20045;-79
2023/04/03 00:21:48;;;;;;;1.15;1.00;;;;;;;5.94;88.74;99642.75;6329245;28;20565;-79
2023/04/03 00:24:49;;;;;;;1.70;0.98;;;;;;;5.83;88.30;99645.88;6295250;28;20447;-79
2023/04/03 00:27:49;;;;;;;0.47;0.40;;;;;;;5.86;87.96;99636.16;6296785;28;21288;-79
2023/04/03 00:30:51;;;;;;;2.42;0.88;;;;;;;5.80;87.86;99633.88;6295267;28;20072;-79
2023/04/03 00:33:52;;;;;;;0.40;0.40;;;;;;;5.77;88.30;99633.22;6305908;28;20096;-79
2023/04/03 00:36:53;;;;;;;1.20;1.10;;;;;;;5.76;87.56;99640.13;6318572;28;20040;-79
2023/04/03 00:39:53;;;;;;;0.70;0.70;;;;;;;5.84;86.63;99652.69;6317624;28;20078;-79
2023/04/03 00:42:58;;;;;;;0.70;0.70;;;;;;;5.72;86.52;99654.13;6298215;28;20040;-79
2023/04/03 00:46:00;;;;;;;0.45;0.45;;;;;;;5.74;84.21;99660.06;6310868;28;20127;-79
2023/04/03 00:49:01;;;;;;;0.80;0.43;;;;;;;5.68;86.66;99660.34;6299020;28;20044;-79
2023/04/03 00:52:02;;;;;;;1.15;0.55;;;;;;;5.80;85.68;99669.28;6300217;28;20051;-78
2023/04/03 00:55:07;;;;;;;0.80;0.52;;;;;;;5.71;85.44;99667.97;6308860;28;20037;-79
2023/04/03 00:58:09;;;;;;;0.70;0.50;;;;;;;5.68;86.75;99667.28;6309014;28;20606;-79
2023/04/03 01:01:14;;;;;;;0.50;0.50;;;;;;;5.57;87.54;99683.31;6297089;28;20496;-79
2023/04/03 01:04:28;;;;;;;0.63;0.45;;;;;;;5.60;88.29;99680.56;6313520;28;20036;-79
2023/04/03 01:07:30;;;;;;;0.73;0.52;;;;;;;5.47;85.64;99666.53;6305332;28;20045;-79
2023/04/03 01:10:31;;;;;;;2.30;1.08;;;;;;;5.50;87.26;99675.00;6308713;28;20044;-79
2023/04/03 01:13:33;;;;;;;0.40;0.40;;;;;;;5.45;86.33;99677.78;6320786;28;20409;-79
2023/04/03 01:16:34;;;;;;;0.32;0.30;;;;;;;5.61;86.30;99677.91;6316095;28;20052;-78
2023/04/03 01:19:44;;;;;;;1.40;0.95;;;;;;;5.54;87.10;99667.91;6300627;28;20102;-79
2023/04/03 01:23:12;;;;;;;0.65;0.65;;;;;;;5.52;86.75;99669.75;6299391;28;20044;-78
2023/04/03 01:26:13;;;;;;;1.55;0.95;;;;;;;5.38;86.45;99670.41;6305851;28;20123;-78
2023/04/03 01:29:14;;;;;;;0.35;0.35;;;;;;;5.51;87.43;99691.38;6305908;28;20062;-78
2023/04/03 01:32:15;;;;;;;0.47;0.47;;;;;;;5.56;85.94;99689.38;6314842;28;20483;-78
2023/04/03 01:35:15;;;;;;;1.45;0.70;;;;;;;5.52;85.42;99701.66;6306323;28;20044;-78
2023/04/03 01:38:16;;;;;;;0.50;0.50;;;;;;;5.39;87.40;99709.09;6316328;28;20101;-78
2023/04/03 01:41:17;;;;;;;0.25;0.25;;;;;;;5.41;85.40;99714.22;6323586;28;20044;-78
2023/04/03 01:44:20;;;;;;;1.65;0.80;;;;;;;5.47;84.14;99710.53;6301939;28;20048;-78
2023/04/03 01:47:22;;;;;;;0.85;0.63;;;;;;;5.42;84.17;99715.91;6315188;28;20123;-78
2023/04/03 01:50:23;;;;;;;0.23;0.23;;;;;;;5.42;84.19;99698.63;6318967;28;20051;-74
2023/04/03 01:53:23;;;;;;;0.75;0.75;;;;;;;5.41;85.57;99702.13;6321624;28;20290;-78
2023/04/03 01:56:24;;;;;;;0.20;0.20;;;;;;;5.47;85.63;99706.19;6301860;28;20048;-79
2023/04/03 01:59:25;;;;;;;0.45;0.40;;;;;;;5.40;86.20;99700.44;6316704;28;20044;-78
2023/04/03 02:02:26;;;;;;;0.60;0.43;;;;;;;5.44;85.59;99698.56;6317457;28;20122;-78
2023/04/03 02:05:30;;;;;;;0.20;0.20;;;;;;;5.32;85.89;99705.13;6308782;28;20036;-79
2023/04/03 02:08:30;;;;;;;0.85;0.70;;;;;;;5.34;83.73;99698.16;6309444;28;20044;-74
2023/04/03 02:11:31;;;;;;;0.65;0.65;;;;;;;5.34;84.89;99694.72;6307440;28;20036;-73
2023/04/03 02:14:32;;;;;;;0.60;0.50;;;;;;;5.34;85.50;99710.25;6318705;28;20059;-73
2023/04/03 02:17:36;;;;;;;3.78;0.47;;;;;;;5.29;84.35;99710.44;6310225;28;20170;-78
2023/04/03 02:20:37;;;;;;;0.45;0.40;;;;;;;5.07;83.93;99704.56;6318919;28;20040;-74
2023/04/03 02:23:38;;;;;;;0.30;0.30;;;;;;;5.14;85.33;99714.53;6323098;28;20074;-73
2023/04/03 02:26:38;;;;;;;0.25;0.25;;;;;;;5.17;85.63;99714.44;6308108;28;20098;-78
2023/04/03 02:29:39;;;;;;;0.60;0.40;;;;;;;5.10;84.07;99705.25;6309921;28;20040;-78
2023/04/03 02:32:42;;;;;;;0.22;0.22;;;;;;;5.14;84.83;99711.97;6321407;28;20046;-72
2023/04/03 02:35:43;;;;;;;0.38;0.38;;;;;;;5.18;85.89;99708.31;6309494;28;20055;-78
2023/04/03 02:38:44;;;;;;;0.50;0.50;;;;;;;5.10;84.30;99714.75;6314207;28;20427;-72
2023/04/03 02:41:45;;;;;;;0.30;0.30;;;;;;;4.87;86.16;99700.25;6310459;28;20492;-78
2023/04/03 02:44:46;;;;;;;0.47;0.47;;;;;;;4.93;84.42;99711.16;6306914;28;20097;-78
2023/04/03 02:47:47;;;;;;;0.55;0.50;;;;;;;4.91;84.76;99709.53;6310172;28;20488;-72
2023/04/03 02:50:50;;;;;;;0.65;0.57;;;;;;;5.05;84.67;99715.78;6318381;28;20040;-72
2023/04/03 02:53:50;;;;;;;0.95;0.30;;;;;;;4.80;85.92;99708.25;6322514;28;20127;-72
2023/04/03 02:56:51;;;;;;;0.28;0.25;;;;;;;4.76;87.46;99716.22;6309838;28;20052;-72
2023/04/03 02:59:52;;;;;;;0.40;0.30;;;;;;;4.76;87.54;99721.38;6320268;28;20044;-72
2023/04/03 03:02:53;;;;;;;0.43;0.30;;;;;;;4.90;87.54;99725.94;6309945;28;20098;-72
2023/04/03 03:06:06;;;;;;;0.63;0.35;;;;;;;4.79;87.79;99719.50;6311541;28;20067;-72
2023/04/03 03:09:07;;;;;;;1.30;0.65;;;;;;;4.66;88.55;99717.50;6311683;28;20051;-72
2023/04/03 03:12:08;;;;;;;0.75;0.63;;;;;;;4.51;89.07;99724.13;6312853;28;20407;-72
2023/04/03 03:15:09;;;;;;;0.40;0.40;;;;;;;4.48;89.41;99722.53;6310495;28;20040;-73
2023/04/03 03:18:12;;;;;;;0.75;0.57;;;;;;;4.37;90.05;99724.72;6334242;27;20496;-73
2023/04/03 03:21:16;;;;;;;0.38;0.35;;;;;;;4.33;89.89;99730.91;6297772;28;20048;-73
2023/04/03 03:24:17;;;;;;;0.30;0.30;;;;;;;4.38;90.55;99727.22;6302595;28;20040;-73
2023/04/03 03:27:18;;;;;;;0.52;0.35;;;;;;;4.09;91.38;99728.38;6310620;28;20060;-72
2023/04/03 03:30:18;;;;;;;0.80;0.60;;;;;;;4.17;89.89;99722.94;6302724;28;20044;-72
2023/04/03 03:33:20;;;;;;;0.77;0.50;;;;;;;4.12;90.91;99707.63;6319252;28;20051;-73
2023/04/03 03:36:20;;;;;;;0.22;0.22;;;;;;;4.11;90.15;99718.00;6314874;28;20089;-73
2023/04/03 03:39:21;;;;;;;0.52;0.52;;;;;;;4.20;91.13;99720.22;6315879;28;20047;-72
2023/04/03 03:42:22;;;;;;;0.88;0.70;;;;;;;4.10;90.49;99713.72;6320468;28;20466;-72
2023/04/03 03:45:23;;;;;;;1.08;0.40;;;;;;;4.22;90.74;99729.59;6319697;28;20133;-72
2023/04/03 03:48:24;;;;;;;1.05;0.95;;;;;;;4.31;90.24;99724.97;6321466;28;20479;-78
2023/04/03 03:51:25;;;;;;;0.30;0.30;;;;;;;4.28;90.29;99743.16;6321957;28;20067;-78
2023/04/03 03:54:26;;;;;;;0.98;0.50;;;;;;;4.17;90.39;99743.59;6322063;28;20511;-77
2023/04/03 03:57:28;;;;;;;0.35;0.35;;;;;;;4.28;90.35;99745.75;6321400;28;20131;-77
2023/04/03 04:00:32;;;;;;;0.70;0.63;;;;;;;4.13;90.28;99731.69;6320245;28;20047;-77
2023/04/03 04:03:36;;;;;;;1.23;0.65;;;;;;;4.10;88.97;99737.84;6317529;28;20043;-77
2023/04/03 04:06:37;;;;;;;0.10;0.10;;;;;;;4.17;89.40;99741.84;6322135;28;20047;-77
2023/04/03 04:09:38;;;;;;;1.27;0.60;;;;;;;4.15;88.83;99753.97;6320636;28;20070;-77
2023/04/03 04:12:39;;;;;;;0.65;0.65;;;;;;;4.15;89.32;99748.81;6319490;28;20040;-77
2023/04/03 04:15:40;;;;;;;0.70;0.70;;;;;;;4.21;89.18;99748.56;6320120;28;20119;-77
2023/04/03 04:18:41;;;;;;;0.65;0.65;;;;;;;4.28;89.22;99748.31;6302257;28;20071;-77
2023/04/03 04:21:44;;;;;;;1.40;0.60;;;;;;;4.16;89.03;99740.16;6309349;28;20113;-77
2023/04/03 04:24:47;;;;;;;0.45;0.45;;;;;;;4.17;88.40;99756.50;6295741;28;20427;-77
2023/04/03 04:27:50;;;;;;;0.47;0.47;;;;;;;4.24;87.68;99753.63;6298464;28;20044;-77
2023/04/03 04:30:51;;;;;;;0.63;0.63;;;;;;;4.31;88.12;99751.63;6301301;28;20439;-77
2023/04/03 04:33:52;;;;;;;0.47;0.40;;;;;;;4.13;86.63;99753.19;6297551;28;20121;-77
2023/04/03 04:36:58;;;;;;;0.40;0.40;;;;;;;4.31;87.25;99754.22;6300035;28;20115;-77
2023/04/03 04:39:58;;;;;;;0.60;0.40;;;;;;;4.32;86.18;99742.97;6295380;28;20102;-77
2023/04/03 04:42:59;;;;;;;0.32;0.32;;;;;;;4.37;86.77;99764.31;6296611;28;20485;-77
2023/04/03 04:46:11;;;;;;;0.43;0.43;;;;;;;4.40;85.61;99755.56;6295446;28;20051;-77
2023/04/03 04:49:12;;;;;;;1.92;0.90;;;;;;;4.27;85.52;99751.81;6295365;28;20045;-71
2023/04/03 04:52:15;;;;;;;0.15;0.13;;;;;;;4.31;84.68;99756.78;6295960;28;20500;-72
2023/04/03 04:55:19;;;;;;;0.65;0.45;;;;;;;4.51;84.32;99761.16;6296213;28;20048;-72
2023/04/03 04:58:20;;;;;;;0.35;0.32;;;;;;;4.60;82.93;99760.78;6294855;28;20112;-72
2023/04/03 05:01:21;;;;;;;1.80;1.58;;;;;;;4.72;83.67;99761.19;6296217;28;20044;-71
2023/04/03 05:04:22;;;;;;;0.28;0.28;;;;;;;4.76;81.37;99763.59;6295855;28;20064;-72
2023/04/03 05:07:25;;;;;;;0.20;0.20;;;;;;;4.81;81.81;99761.63;6294810;28;20060;-72
2023/04/03 05:10:29;;;;;;;0.30;0.30;;;;;;;4.86;81.38;99764.03;6294560;28;20047;-72
2023/04/03 05:13:35;;;;;;;0.30;0.30;;;;;;;5.04;81.43;99759.81;6294687;28;20098;-72
2023/04/03 05:16:36;;;;;;;0.20;0.20;;;;;;;4.99;79.62;99774.69;6295432;28;20041;-72
2023/04/03 05:19:37;;;;;;;0.13;0.13;;;;;;;4.97;80.36;99769.59;6301771;28;20066;-74
2023/04/03 05:22:38;;;;;;;0.50;0.50;;;;;;;4.93;78.63;99785.31;6292061;28;20555;-72
2023/04/03 05:25:39;;;;;;;0.20;0.20;;;;;;;4.98;81.05;99773.00;6294499;28;20037;-72
2023/04/03 05:28:40;;;;;;;0.28;0.28;;;;;;;4.92;80.49;99776.72;6294612;28;20044;-73
2023/04/03 05:31:41;;;;;;;0.45;0.40;;;;;;;4.99;80.18;99766.94;6294181;28;20040;-72
2023/04/03 05:34:42;;;;;;;0.45;0.38;;;;;;;5.05;79.15;99762.34;6294491;28;20049;-72
2023/04/03 05:37:43;;;;;;;0.10;0.10;;;;;;;5.19;78.69;99753.16;6295443;28;20041;-73
2023/04/03 05:40:44;;;;;;;0.25;0.25;;;;;;;5.33;77.43;99752.53;6295553;28;20064;-72
2023/04/03 05:43:44;;;;;;;0.10;0.10;;;;;;;5.54;76.62;99749.00;6295324;28;20049;-72
2023/04/03 05:46:45;;;;;;;0.17;0.17;;;;;;;5.55;76.85;99763.63;6294099;28;20522;-72
2023/04/03 05:49:46;;;;;;;0.30;0.30;;;;;;;5.50;79.50;99773.34;6296319;28;20071;-72
2023/04/03 05:52:49;;;;;;;0.22;0.17;;;;;;;5.47;76.41;99775.22;6298923;28;20064;-71
2023/04/03 05:55:49;;;;;;;;;;;;;;;5.41;75.83;99778.91;6300344;28;20044;-71
2023/04/03 05:58:50;;;;;;;0.20;0.20;;;;;;;5.44;76.03;99787.38;6299877;28;19965;-72
2023/04/03 06:01:54;;;;;;;0.20;0.20;;;;;;;5.46;75.93;99782.16;6299680;28;20045;-72
2023/04/03 06:04:55;;;;;;;0.65;0.63;;;;;;;5.44;74.39;99784.81;6299776;28;20078;-72
2023/04/03 06:07:56;;;;;;;0.10;0.10;;;;;;;5.24;74.67;99792.59;6299412;28;20037;-76
2023/04/03 06:10:57;;;;;;;0.47;0.27;;;;;;;5.28;75.46;99798.47;6306974;28;20127;-76
2023/04/03 06:13:58;;;;;;;0.30;0.30;;;;;;;5.71;74.69;99794.00;6324585;28;20044;-77
2023/04/03 06:16:59;;;;;;;0.20;0.15;;;;;;;5.78;73.97;99798.81;6324156;28;20032;-77
2023/04/03 06:20:01;;;;;;;0.20;0.20;;;;;;;5.78;73.85;99777.25;6324218;28;20044;-76
2023/04/03 06:23:02;;;;;;;0.35;0.30;;;;;;;5.51;73.19;99792.28;6324173;28;20039;-76
2023/04/03 06:26:03;;;;;;;0.30;0.30;;;;;;;5.56;72.75;99798.09;6325010;28;20047;-76
2023/04/03 06:29:04;;;;;;;0.10;0.10;;;;;;;5.81;73.42;99785.75;6323817;28;20036;-76
2023/04/03 06:32:08;;;;;;;8.13;1.50;;;;;;;5.99;71.71;99801.38;6325069;28;20044;-76
2023/04/03 06:35:14;;;;;;;0.20;0.20;;;;;;;5.84;71.79;99800.28;6324994;28;20040;-76
2023/04/03 06:38:18;;;;;;;1.33;0.38;;;;;;;5.97;71.64;99798.88;6324546;28;20097;-76
2023/04/03 06:41:21;;;;;;;0.10;0.10;;;;;;;5.85;72.11;99815.75;6323719;28;20047;-76
2023/04/03 06:44:21;;;;;;;0.70;0.30;;;;;;;6.22;72.29;99806.34;6323574;28;20044;-76
2023/04/03 06:47:22;;;;;;;0.08;0.08;;;;;;;6.37;71.50;99809.94;6323550;28;20085;-76
2023/04/03 06:50:23;;;;;;;0.30;0.30;;;;;;;6.49;70.19;99818.06;6323608;28;20036;-76
2023/04/03 06:53:24;;;;;;;1.63;0.43;;;;;;;6.44;68.85;99819.13;6324637;28;20082;-76
2023/04/03 06:56:26;;;;;;;0.57;0.40;;;;;;;6.76;67.51;99815.88;6324589;28;20139;-76
2023/04/03 06:59:29;;;;;;;0.82;0.45;;;;;;;6.77;66.21;99809.75;6322788;28;20484;-76
2023/04/03 07:02:30;;;;;;;0.30;0.30;;;;;;;6.56;66.44;99829.81;6323348;28;20036;-76
2023/04/03 07:05:31;;;;;;;0.13;0.13;;;;;;;6.41;66.51;99826.19;6323347;28;20487;-76
2023/04/03 07:08:33;;;;;;;4.80;0.47;;;;;;;6.54;65.58;99824.69;6323256;28;20488;-76
2023/04/03 07:11:33;;;;;;;0.20;0.20;;;;;;;6.74;66.33;99826.31;6323091;28;20044;-76
2023/04/03 07:14:37;;;;;;;0.30;0.30;;;;;;;6.49;64.89;99851.75;6323837;28;20048;-76
2023/04/03 07:17:37;;;;;;;0.88;0.70;;;;;;;6.74;63.71;99828.91;6323945;28;20519;-76
2023/04/03 07:20:41;;;;;;;0.17;0.17;;;;;;;6.84;63.76;99842.28;6322775;28;20071;-76
2023/04/03 07:23:42;;;;;;;0.20;0.20;;;;;;;6.79;63.30;99846.84;6322679;28;20089;-76
2023/04/03 07:26:44;;;;;;;1.02;0.20;;;;;;;6.82;61.63;99844.09;6322789;28;20436;-76
2023/04/03 07:29:47;;;;;;;0.20;0.20;;;;;;;6.79;63.03;99831.28;6323337;28;20040;-76
2023/04/03 07:32:48;;;;;;;0.10;0.10;;;;;;;7.03;61.83;99843.03;6323687;28;20044;-76
2023/04/03 07:35:49;;;;;;;0.32;0.15;;;;;;;6.93;61.04;99841.81;6323448;28;20124;-76
2023/04/03 07:38:53;;;;;;;0.13;0.13;;;;;;;7.10;61.94;99843.56;6322308;28;20047;-76
2023/04/03 07:41:56;;;;;;;0.20;0.20;;;;;;;7.29;61.29;99847.84;6322280;28;20064;-76
2023/04/03 07:44:57;;;;;;;5.82;0.22;;;;;;;7.16;60.80;99847.63;6322297;28;20040;-77
2023/04/03 07:47:58;;;;;;;2.47;0.65;;;;;;;7.42;59.23;99852.31;6323451;28;20127;-76
2023/04/03 07:51:00;;;;;;;0.10;0.10;;;;;;;7.28;60.24;99857.38;6322353;28;20119;-76
2023/04/03 07:54:01;;;;;;;;;;;;;;;7.29;59.00;99845.22;6323720;28;20044;-76
2023/04/03 07:57:02;;;;;;;0.40;0.35;;;;;;;7.07;59.30;99852.34;6323133;28;19927;-76
2023/04/03 08:00:05;;;;;;;0.20;0.20;;;;;;;7.26;59.95;99852.25;6322138;28;20467;-76
2023/04/03 08:03:07;;;;;;;5.60;0.75;;;;;;;7.29;58.14;99864.25;6323150;28;20134;-76
2023/04/03 08:06:08;;;;;;;0.20;0.20;;;;;;;7.53;58.04;99875.13;6322130;28;20066;-76
2023/04/03 08:09:09;;;;;;;0.10;0.10;;;;;;;7.73;57.31;99878.47;6321837;28;20040;-76
2023/04/03 08:12:11;;;;;;;0.32;0.32;;;;;;;7.55;57.00;99859.50;6322119;28;20288;-76
2023/04/03 08:15:11;;;;;;;0.73;0.73;;;;;;;8.08;57.45;99887.84;6321741;28;20063;-76
2023/04/03 08:18:14;;;;;;;0.30;0.30;;;;;;;7.83;56.18;99880.50;6321380;28;20527;-76
2023/04/03 08:21:15;;;;;;;0.22;0.22;;;;;;;8.08;56.79;99884.41;6321795;28;20055;-76
2023/04/03 08:24:18;;;;;;;0.20;0.20;;;;;;;8.25;56.45;99881.72;6321627;28;20384;-76
2023/04/03 08:27:19;;;;;;;0.20;0.20;;;;;;;8.17;56.09;99891.69;6321425;28;20036;-76
2023/04/03 08:30:20;;;;;;;0.20;0.20;;;;;;;8.09;55.03;99893.88;6322609;28;20043;-76
2023/04/03 08:33:23;;;;;;;26.17;0.93;;;;;;;8.20;55.41;99898.53;6322761;28;20040;-76
2023/04/03 08:36:29;;;;;;;1.48;0.40;;;;;;;8.20;54.25;99891.56;6321411;28;20044;-76
2023/04/03 08:39:30;;;;;;;0.55;0.40;;;;;;;8.25;53.93;99899.94;6322413;28;20048;-76
2023/04/03 08:42:41;;;;;;;;;;;;;;;8.06;54.51;99891.44;6301235;28;20062;-75
2023/04/03 08:45:47;;;;;;;6.13;0.63;;;;;;;8.72;55.79;99903.50;6319928;28;19924;-76
2023/04/03 08:48:50;;;;;;;2.25;0.60;;;;;;;8.69;53.44;99901.06;6321375;28;20040;-76
2023/04/03 08:51:53;;;;;;;1.77;0.47;;;;;;;8.62;54.10;99907.53;6321099;28;20404;-76
2023/04/03 08:54:55;;;;;;;;;;;;;;;8.91;54.25;99910.28;6322760;28;20051;-76
2023/04/03 08:58:12;;;;;;;0.20;0.17;;;;;;;8.98;53.90;99909.00;6322474;28;19920;-76
2023/04/03 09:01:38;;;;;;;0.60;0.17;;;;;;;8.95;52.32;99912.59;6321284;28;20103;-76
2023/04/03 09:04:39;;;;;;;1.02;0.40;;;;;;;8.91;54.53;99897.25;6321349;28;20051;-77
2023/04/03 09:07:45;;;;;;;3.00;0.30;;;;;;;8.84;53.95;99913.22;6321210;28;20044;-77
2023/04/03 09:10:46;;;;;;;0.43;0.30;;;;;;;8.98;52.60;99904.63;6322220;28;20040;-77
2023/04/03 09:13:52;;;;;;;0.40;0.15;;;;;;;9.46;53.39;99902.72;6322204;28;20052;-77
2023/04/03 09:16:58;;;;;;;8.30;0.75;;;;;;;9.21;51.61;99918.09;6322307;28;20059;-77
2023/04/03 09:20:21;;;;;;;3.20;0.43;;;;;;;9.08;53.70;99920.59;6320941;28;20044;-77
2023/04/03 09:23:28;;;;;;;9.90;0.98;;;;;;;9.33;52.40;99924.34;6322548;28;20087;-77
2023/04/03 09:26:35;;;;;;;1.60;0.73;;;;;;;9.23;52.73;99926.66;6326779;28;20403;-77
2023/04/03 09:29:42;;;;;;;18.10;1.25;;;;;;;9.38;53.85;99925.75;6326060;28;20097;-77
2023/04/03 09:32:48;;;;;;;0.60;0.30;;;;;;;9.07;52.01;99911.06;6325688;28;20044;-76
2023/04/03 09:35:50;;;;;;;1.58;0.47;;;;;;;9.35;53.87;99919.88;6326961;28;20093;-77
2023/04/03 09:39:05;;;;;;;0.10;0.10;;;;;;;9.46;53.92;99933.16;6325135;28;20052;-76
2023/04/03 09:42:18;;;;;;;0.20;0.20;;;;;;;9.32;51.85;99928.72;6326796;28;20044;-76
2023/04/03 09:45:39;;;;;;;0.95;0.63;;;;;;;9.58;53.88;99929.81;6326494;28;20036;-77
2023/04/03 09:48:50;;;;;;;2.38;0.47;;;;;;;10.26;52.91;99946.63;6326423;28;20040;-76
2023/04/03 09:51:51;;;;;;;1.48;0.65;;;;;;;9.98;51.44;99940.47;6325222;28;20040;-77
2023/04/03 09:54:52;;;;;;;13.30;1.00;;;;;;;10.02;52.56;99939.34;6326096;28;20182;-73
2023/04/03 09:57:57;;;;;;;0.40;0.32;;;;;;;9.66;53.15;99931.97;6323776;28;20032;-72
2023/04/03 10:01:00;;;;;;;0.10;0.10;;;;;;;10.06;51.36;99945.22;6323857;28;20473;-72
2023/04/03 10:04:06;;;;;;;7.75;1.08;;;;;;;9.80;51.75;99949.38;6323819;28;20070;-73
2023/04/03 10:07:46;;;;;;;6.07;1.02;;;;;;;10.25;52.62;99943.19;6323387;28;20040;-72
2023/04/03 10:11:07;;;;;;;11.77;0.43;;;;;;;10.04;51.89;99940.09;6296740;28;20564;-73
2023/04/03 10:14:16;;;;;;;0.38;0.38;;;;;;;10.42;50.22;99929.13;6298866;28;20048;-73
2023/04/03 10:17:21;;;;;;;0.28;0.28;;;;;;;10.12;50.91;99942.25;6324542;28;20039;-73
2023/04/03 10:20:44;;;;;;;0.15;0.15;;;;;;;10.76;50.44;99934.81;6324686;28;20044;-72
2023/04/03 10:24:13;;;;;;;0.65;0.25;;;;;;;10.65;52.02;99945.94;6323156;28;20555;-73
2023/04/03 10:27:32;;;;;;;0.77;0.30;;;;;;;10.66;49.67;99952.00;6321181;28;20060;-73
2023/04/03 10:30:54;;;;;;;2.92;0.70;;;;;;;10.89;51.61;99956.59;6324230;28;20032;-73
2023/04/03 10:34:22;;;;;;;6.93;0.83;;;;;;;10.14;52.27;99960.41;6322968;28;20068;-74
2023/04/03 10:37:36;;;;;;;0.30;0.30;;;;;;;10.62;51.50;99953.94;6323765;28;20272;-74
2023/04/03 10:40:58;;;;;;;3.63;0.70;;;;;;;10.67;52.41;99956.28;6322762;28;20052;-74
2023/04/03 10:44:33;;;;;;;1.13;0.50;;;;;;;10.42;49.22;99944.78;6322817;28;20113;-73
2023/04/03 10:47:39;;;;;;;1.55;0.40;;;;;;;10.04;52.06;99949.69;6323763;28;20043;-73
2023/04/03 10:50:57;;;;;;;8.18;1.63;;;;;;;10.94;51.76;99940.66;6322306;28;20044;-73
2023/04/03 10:54:23;;;;;;;4.03;0.50;;;;;;;10.01;50.79;99952.50;6323645;28;20036;-73
2023/04/03 10:57:25;;;;;;;1.75;0.50;;;;;;;9.92;49.01;99953.88;6322303;28;20040;-73
2023/04/03 11:00:45;;;;;;;1.02;0.60;;;;;;;10.50;53.55;99957.34;6323493;28;20392;-73
2023/04/03 11:03:52;;;;;;;1.10;0.43;;;;;;;10.98;48.94;99941.28;6322229;28;20052;-72
2023/04/03 11:07:01;;;;;;;0.80;0.57;;;;;;;10.58;51.14;99959.47;6323158;28;20491;-74
2023/04/03 11:10:13;;;;;;;11.40;0.90;;;;;;;11.03;51.09;99950.47;6323159;28;20049;-73
2023/04/03 11:13:33;;;;;;;0.30;0.30;;;;;;;11.08;49.31;99958.03;6321871;28;20036;-73
2023/04/03 11:16:41;;;;;;;1.48;0.52;;;;;;;10.61;48.79;99951.47;6321793;28;20044;-73
2023/04/03 11:19:52;;;;;;;1.88;1.08;;;;;;;10.21;49.00;99957.34;6321639;28;20504;-73
2023/04/03 11:23:20;;;;;;;6.03;1.48;;;;;;;10.32;50.50;99943.66;6322892;28;20444;-73
2023/04/03 11:26:29;;;;;;;4.43;0.68;;;;;;;10.69;49.17;99947.44;6322762;28;20040;-73
2023/04/03 11:29:39;;;;;;;2.72;0.93;;;;;;;11.05;49.69;99945.16;6322766;28;20040;-72
2023/04/03 11:32:48;;;;;;;6.35;0.63;;;;;;;11.41;49.50;99936.69;6322722;28;20399;-73
2023/04/03 11:35:53;;;;;;;10.75;1.45;;;;;;;10.91;48.79;99938.22;6321378;28;20040;-73
2023/04/03 11:39:00;;;;;;;7.30;0.57;;;;;;;10.90;48.46;99941.78;6321202;28;20123;-72
2023/04/03 11:42:26;;;;;;;0.60;0.35;;;;;;;10.57;47.28;99929.94;6322404;28;20093;-73
2023/04/03 11:45:38;;;;;;;0.20;0.20;;;;;;;10.51;48.21;99932.09;6322396;28;20043;-73
2023/04/03 11:48:44;;;;;;;;;;;;;;;10.81;48.89;99921.47;6320732;28;20036;-73
2023/04/03 11:51:45;;;;;;;2.45;0.40;;;;;;;10.97;49.77;99944.81;6322461;28;19955;-73
2023/04/03 11:54:48;;;;;;;4.00;0.47;;;;;;;11.15;47.12;99925.34;6322100;28;20047;-73
2023/04/03 11:57:58;;;;;;;3.58;0.80;;;;;;;11.27;49.00;99921.94;6320819;28;20115;-74
2023/04/03 12:01:01;;;;;;;2.70;0.47;;;;;;;10.82;47.66;99925.75;6320847;28;20131;-73
2023/04/03 12:04:13;;;;;;;1.67;0.40;;;;;;;11.07;47.63;99914.56;6322064;28;20035;-74
2023/04/03 12:07:18;;;;;;;5.82;1.02;;;;;;;10.22;46.97;99932.94;6321839;28;20044;-73
2023/04/03 12:10:19;;;;;;;4.80;0.60;;;;;;;9.97;47.52;99920.56;6321697;28;20085;-73
2023/04/03 12:13:23;;;;;;;15.43;1.10;;;;;;;9.84;47.69;99935.25;6321698;28;20040;-73
2023/04/03 12:16:37;;;;;;;4.22;0.63;;;;;;;10.78;48.09;99932.13;6321863;28;20060;-73
2023/04/03 12:19:44;;;;;;;3.47;0.90;;;;;;;10.36;47.03;99939.09;6320339;28;20093;-74
2023/04/03 12:23:26;;;;;;;0.63;0.50;;;;;;;10.69;46.95;99941.38;6320468;28;20039;-73
2023/04/03 12:26:43;;;;;;;0.57;0.43;;;;;;;10.16;46.56;99935.06;6321380;28;20044;-73
2023/04/03 12:29:51;;;;;;;0.60;0.52;;;;;;;10.44;48.64;99929.88;6320240;28;20404;-73
2023/04/03 12:33:16;;;;;;;5.85;1.15;;;;;;;10.11;47.50;99930.16;6320218;28;20040;-73
2023/04/03 12:36:33;;;;;;;2.53;0.57;;;;;;;10.22;48.63;99940.75;6321423;28;20044;-74
2023/04/03 12:40:11;;;;;;;16.00;2.05;;;;;;;10.08;49.51;99933.75;6319816;28;20101;-73
2023/04/03 12:43:31;;;;;;;21.80;0.82;;;;;;;10.39;48.94;99929.31;6321295;28;20400;-72
2023/04/03 12:46:48;;;;;;;16.60;0.80;;;;;;;10.12;46.87;99934.41;6319866;28;20186;-73
2023/04/03 12:49:50;;;;;;;9.43;0.80;;;;;;;10.13;47.02;99923.06;6320815;28;20036;-73
2023/04/03 12:53:25;;;;;;;3.15;0.70;;;;;;;9.63;48.72;99932.16;6319254;28;20051;-73
2023/04/03 12:56:36;;;;;;;6.35;1.52;;;;;;;9.77;49.41;99932.16;6316571;28;20682;-73
2023/04/03 12:59:38;;;;;;;8.52;0.70;;;;;;;9.25;48.45;99933.44;6323487;28;20097;-73
2023/04/03 13:02:44;;;;;;;2.03;0.65;;;;;;;9.65;49.52;99927.69;6326196;28;20047;-73
2023/04/03 13:05:45;;;;;;;3.28;0.90;;;;;;;9.01;49.13;99917.47;6326094;28;20040;-73
2023/04/03 13:08:57;;;;;;;11.20;1.55;;;;;;;8.79;48.87;99922.19;6325941;28;20040;-73
2023/04/03 13:12:03;;;;;;;3.30;0.93;;;;;;;9.17;50.00;99927.03;6325865;28;20046;-73
2023/04/03 13:15:27;;;;;;;8.95;0.85;;;;;;;9.25;50.40;99919.59;6324738;28;20680;-73
2023/04/03 13:18:31;;;;;;;2.97;0.85;;;;;;;8.88;50.19;99932.94;6325705;28;20040;-73
2023/04/03 13:21:36;;;;;;;2.75;1.08;;;;;;;9.55;49.91;99940.41;6324521;28;20051;-73
2023/04/03 13:24:40;;;;;;;13.43;1.83;;;;;;;9.79;50.34;99930.31;6324344;28;20044;-73
2023/04/03 13:27:43;;;;;;;0.30;0.30;;;;;;;9.17;49.50;99930.44;6324471;28;20040;-74
2023/04/03 13:31:17;;;;;;;4.15;1.27;;;;;;;9.41;51.06;99936.03;6325346;28;20047;-74
2023/04/03 13:34:21;;;;;;;3.88;0.95;;;;;;;8.97;49.99;99943.75;6325393;28;20040;-73
2023/04/03 13:37:31;;;;;;;5.50;1.45;;;;;;;8.97;48.16;99941.16;6324202;28;20488;-73
2023/04/03 13:40:32;;;;;;;4.28;1.38;;;;;;;8.93;49.92;99944.84;6323993;28;20059;-73
2023/04/03 13:43:36;;;;;;;2.45;0.93;;;;;;;8.82;49.43;99941.09;6324121;28;20044;-73
2023/04/03 13:46:37;;;;;;;4.10;0.93;;;;;;;8.79;50.34;99933.47;6325283;28;20044;-73
2023/04/03 13:50:01;;;;;;;15.18;1.83;;;;;;;8.81;49.20;99936.81;6323770;28;20039;-73
2023/04/03 13:53:11;;;;;;;1.42;0.60;;;;;;;8.57;50.73;99938.16;6325146;28;20040;-72
2023/04/03 13:56:25;;;;;;;10.82;0.47;;;;;;;8.90;49.63;99945.03;6325037;28;20040;-72
2023/04/03 13:59:35;;;;;;;9.38;2.58;;;;;;;8.75;50.29;99951.91;6323696;28;20043;-73
2023/04/03 14:02:39;;;;;;;10.38;1.55;;;;;;;9.23;50.60;99950.94;6324441;28;20070;-76
2023/04/03 14:05:40;;;;;;;0.40;0.40;;;;;;;9.46;51.13;99936.56;6324797;28;20471;-77
2023/04/03 14:08:41;;;;;;;11.68;1.90;;;;;;;8.39;50.37;99942.56;6325762;28;20036;-76
2023/04/03 14:11:42;;;;;;;3.70;1.30;;;;;;;8.62;51.44;99942.16;6324377;28;20044;-77
2023/04/03 14:14:43;;;;;;;3.92;0.90;;;;;;;8.54;50.16;99952.16;6325695;28;20051;-77
2023/04/03 14:17:47;;;;;;;4.05;2.15;;;;;;;8.41;51.82;99943.34;6325638;28;20491;-76
2023/04/03 14:20:50;;;;;;;5.55;0.90;;;;;;;8.26;51.17;99922.41;6324048;28;20051;-77
2023/04/03 14:23:54;;;;;;;10.10;1.35;;;;;;;7.94;52.16;99941.47;6325484;28;20404;-76
2023/04/03 14:26:55;;;;;;;11.95;1.45;;;;;;;8.31;51.83;99940.34;6324276;28;20488;-76
2023/04/03 14:29:58;;;;;;;11.52;1.70;;;;;;;8.35;51.84;99939.28;6325341;28;20456;-76
2023/04/03 14:32:59;;;;;;;4.05;1.50;;;;;;;7.83;53.16;99947.22;6325194;28;20040;-76
2023/04/03 14:36:02;;;;;;;0.25;0.25;;;;;;;7.97;53.99;99947.34;6325197;28;20064;-76
2023/04/03 14:39:05;;;;;;;1.30;0.95;;;;;;;7.55;52.75;99948.59;6322807;28;20036;-76
2023/04/03 14:42:06;;;;;;;4.30;0.57;;;;;;;7.67;53.39;99936.75;6316714;28;20044;-76